Pagrindinis puslapis
METAR-TAF:

METAR-TAF

Oro uostai :

Kartachena, Kolumbija

platuma: 10-27N, ilguma: 075-31W, Aukštis: 1 m

Dabartinis oras

Ataskaita buvo paskelbta 22 minutes, ne 04:00 UTC
Vėjas 6 kt iš Šiaurės, svyruoja nuo Šiaurės/Šiaurės Vakarų ir Šiaurės Rytų
Temperatūra 28°C
Drėgmė 84%
Slėgis 1011 hPa
Matomumas 10 km arba daugiau
Mažai debesys ne aukštis 1700 ft

METAR: SKCG 220400Z 01006KT 340V050 9999 FEW017 28/25 Q1011

Laikas: 23:22 (04:22 UTC)

Prognozė

Ataskaita buvo paskelbta 5 valandos ir 52 minutes, ne 22:30 UTC
Prognozė galioja nuo 22 metu 00 UTC su 22 metu 24 UTC
Vėjas 6 kt iš Šiaurės
Matomumas 10 km arba daugiau
Išsisklaidę debesys ne aukštis 1700 ft
Laikinai
nuo 22 metu 18 UTC su 22 metu 21 UTC
Išsisklaidę debesys ne aukštis 1500 ft, Liūtiniai kamuoliniai debesys.
lietus,

TAF: SKCG 212230Z 2200/2224 36006KT 9999 SCT017 TEMPO 2218/2221 RA SCT015CB TX33/2217Z TN27/2210Z

Orai ataskaitas ir orų prognozės (METAR, TAF).

turimą stotys yra geltonos ir raudonos taškus žemėlapyje.

Perkelti pele per norėdami pamatyti stoties vardą.

Tada spustelėkite, norėdami matyti oro stebėjimo ir prognozės.

Norėdami pakeisti žemėlapį: spustelėkite ant žalios mygtukų su juodo kryžiaus žemyn,; žalią mygtuką su brūkšneliu, jei norite nutolinti; arba žalių rodyklių gretimoms žemėlapius.


METAR-TAF: